Time;durP1;ratioP1;P1;durP2;ratioP2;P2;SDS_P1;SDS_P2;PMS_P1;PMS_P2;Temp;Humidity;BMP_temperature;BMP_pressure;BME280_temperature;BME280_humidity;BME280_pressure;Samples;Min_cycle;Max_cycle;Signal;HPM_P1;HPM_P2
2021/12/01 00:00:39;;;;;;;0.63;0.63;;;;;;;5.04;96.42;95762.50;5096731;28;20206;-69
2021/12/01 00:03:05;;;;;;;1.80;1.07;;;;;;;4.95;96.53;95768.63;5094120;28;20203;-70
2021/12/01 00:05:33;;;;;;;0.80;0.60;;;;;;;5.11;96.69;95758.28;5094573;28;20215;-70
2021/12/01 00:08:00;;;;;;;0.57;0.57;;;;;;;5.00;96.74;95762.94;5095880;28;20206;-70
2021/12/01 00:10:29;;;;;;;0.53;0.53;;;;;;;5.27;96.70;95768.81;5097330;28;20831;-70
2021/12/01 00:12:56;;;;;;;0.90;0.50;;;;;;;5.23;95.58;95758.81;5099147;28;20238;-70
2021/12/01 00:15:23;;;;;;;0.67;0.60;;;;;;;5.14;95.64;95764.97;5099030;28;20312;-70
2021/12/01 00:17:50;;;;;;;0.50;0.50;;;;;;;5.15;95.27;95759.59;5098188;28;20907;-70
2021/12/01 00:20:19;;;;;;;1.20;1.10;;;;;;;5.17;96.48;95752.44;5097840;28;20676;-70
2021/12/01 00:22:47;;;;;;;1.37;1.10;;;;;;;5.48;95.36;95749.13;5097726;28;20210;-70
2021/12/01 00:25:16;;;;;;;0.50;0.50;;;;;;;5.41;95.60;95747.31;5097818;28;20214;-70
2021/12/01 00:27:44;;;;;;;0.50;0.50;;;;;;;5.51;95.43;95747.97;5097647;28;20203;-70
2021/12/01 00:30:11;;;;;;;0.40;0.40;;;;;;;5.37;95.56;95753.81;5098700;28;20195;-70
2021/12/01 00:32:38;;;;;;;0.70;0.70;;;;;;;5.21;95.63;95739.88;5099271;28;20238;-70
2021/12/01 00:35:05;;;;;;;0.93;0.93;;;;;;;5.32;96.01;95748.28;5099918;28;20230;-70
2021/12/01 00:37:31;;;;;;;0.40;0.40;;;;;;;5.40;94.76;95735.22;5100841;28;20199;-70
2021/12/01 00:39:58;;;;;;;1.03;0.80;;;;;;;5.31;95.37;95730.94;5099251;27;20287;-70
2021/12/01 00:42:24;;;;;;;0.73;0.73;;;;;;;5.33;95.09;95728.97;5098788;28;20203;-70
2021/12/01 00:44:56;;;;;;;0.77;0.30;;;;;;;5.58;95.17;95723.69;5099232;28;20219;-70
2021/12/01 00:47:30;;;;;;;0.30;0.30;;;;;;;5.36;94.80;95720.84;5099632;28;20206;-70
2021/12/01 00:49:57;;;;;;;0.67;0.67;;;;;;;5.42;94.93;95717.59;5098914;28;20565;-70
2021/12/01 00:52:23;;;;;;;0.77;0.67;;;;;;;5.48;94.88;95728.22;5098185;28;20195;-70
2021/12/01 00:54:50;;;;;;;0.87;0.60;;;;;;;5.49;94.47;95708.97;5099621;28;20238;-70
2021/12/01 00:57:16;;;;;;;0.47;0.47;;;;;;;5.49;94.42;95719.41;5096727;28;20203;-70
2021/12/01 00:59:43;;;;;;;0.67;0.67;;;;;;;5.47;94.36;95723.16;5099180;28;20202;-70
2021/12/01 01:02:11;;;;;;;0.93;0.93;;;;;;;5.46;95.70;95711.91;5099273;28;21453;-70
2021/12/01 01:04:37;;;;;;;0.70;0.70;;;;;;;5.42;95.74;95709.75;5098476;28;20214;-70
2021/12/01 01:07:04;;;;;;;0.50;0.50;;;;;;;5.65;94.30;95705.56;5098550;28;20218;-70
2021/12/01 01:09:32;;;;;;;0.57;0.57;;;;;;;5.44;94.73;95703.38;5099069;28;20827;-70
2021/12/01 01:17:37;;;;;;;0.30;0.30;;;;;;;5.73;95.77;95689.94;5098397;28;20214;-70
2021/12/01 01:23:14;;;;;;;1.70;1.10;;;;;;;5.74;96.71;95681.91;5077854;27;20903;-66
2021/12/01 01:25:53;;;;;;;0.60;0.60;;;;;;;5.59;96.84;95687.94;5078218;28;20222;-65
2021/12/01 01:28:45;;;;;;;0.80;0.67;;;;;;;5.64;96.03;95680.44;5079657;28;20188;-65
2021/12/01 01:31:16;;;;;;;0.60;0.60;;;;;;;5.76;96.30;95685.19;5080129;28;20189;-66
2021/12/01 01:33:53;;;;;;;0.70;0.70;;;;;;;6.01;94.97;95678.19;5079894;28;20192;-66
2021/12/01 01:36:51;;;;;;;1.03;0.93;;;;;;;6.03;95.55;95684.91;5073898;28;20267;-65
2021/12/01 01:39:41;;;;;;;0.60;0.60;;;;;;;5.79;96.87;95678.84;5078553;28;20204;-67
2021/12/01 01:42:09;;;;;;;2.10;0.77;;;;;;;5.78;96.49;95661.50;5078818;28;20254;-66
2021/12/01 01:44:42;;;;;;;0.43;0.43;;;;;;;5.82;95.85;95679.34;5080565;28;20207;-66
2021/12/01 01:47:15;;;;;;;0.70;0.70;;;;;;;5.46;97.23;95671.91;5075092;28;20212;-66
2021/12/01 01:49:49;;;;;;;0.57;0.57;;;;;;;5.54;97.16;95667.50;5077750;28;20283;-66
2021/12/01 01:52:17;;;;;;;0.40;0.40;;;;;;;5.67;96.48;95672.25;5078937;28;20181;-66
2021/12/01 01:54:53;;;;;;;0.50;0.50;;;;;;;5.74;97.35;95665.41;5079904;28;20209;-66
2021/12/01 02:03:42;;;;;;;0.40;0.40;;;;;;;5.92;96.67;95658.25;5077118;28;20201;-66
2021/12/01 02:06:10;;;;;;;1.60;1.10;;;;;;;6.06;95.96;95654.00;5077199;28;20243;-66
2021/12/01 02:08:40;;;;;;;0.50;0.50;;;;;;;5.91;95.87;95654.03;5076720;28;20212;-66
2021/12/01 02:11:12;;;;;;;0.60;0.57;;;;;;;6.10;97.16;95644.84;5075552;28;20209;-66
2021/12/01 02:13:40;;;;;;;0.60;0.60;;;;;;;5.88;96.03;95638.66;5073100;28;20215;-66
2021/12/01 02:16:11;;;;;;;1.03;0.73;;;;;;;6.00;96.51;95637.38;5077483;28;20277;-66
2021/12/01 02:18:39;;;;;;;0.40;0.40;;;;;;;5.75;96.71;95648.75;5075278;28;20272;-68
2021/12/01 02:21:27;;;;;;;1.00;0.87;;;;;;;6.11;95.14;95641.28;5077266;28;20220;-66
2021/12/01 02:24:13;;;;;;;0.40;0.40;;;;;;;6.29;95.37;95620.97;5075639;28;20177;-66
2021/12/01 02:26:47;;;;;;;0.80;0.80;;;;;;;6.06;95.85;95630.47;5076357;28;20189;-66
2021/12/01 02:29:23;;;;;;;0.40;0.40;;;;;;;6.23;95.66;95626.84;5076676;28;20207;-66
2021/12/01 02:31:53;;;;;;;0.60;0.60;;;;;;;6.03;96.75;95616.09;5075803;28;20219;-66
2021/12/01 02:37:10;;;;;;;0.80;0.80;;;;;;;6.14;95.24;95601.69;5024825;28;20194;-66
2021/12/01 02:39:38;;;;;;;1.80;1.13;;;;;;;5.81;96.12;95603.69;5063641;28;20201;-66
2021/12/01 02:42:07;;;;;;;0.57;0.57;;;;;;;5.88;95.85;95595.03;5063151;28;20220;-66
2021/12/01 02:44:35;;;;;;;1.17;0.60;;;;;;;6.13;95.46;95579.13;5061767;28;20219;-65
2021/12/01 02:47:03;;;;;;;1.30;0.80;;;;;;;5.97;95.48;95582.75;5065422;28;20441;-66
2021/12/01 02:49:30;;;;;;;1.47;1.13;;;;;;;6.04;95.04;95580.13;5063679;28;20197;-67
2021/12/01 02:51:56;;;;;;;0.50;0.50;;;;;;;5.95;95.14;95589.97;5063959;28;20316;-66
2021/12/01 02:54:26;;;;;;;2.03;0.70;;;;;;;6.39;95.03;95568.44;5063192;28;20545;-66
2021/12/01 02:56:55;;;;;;;0.70;0.70;;;;;;;6.27;95.28;95556.72;5062658;28;20204;-66
2021/12/01 02:59:23;;;;;;;1.87;0.87;;;;;;;6.23;94.78;95553.63;5064749;28;20185;-66
2021/12/01 03:01:50;;;;;;;0.43;0.43;;;;;;;6.20;94.33;95548.72;5060466;28;20236;-67
2021/12/01 03:04:17;;;;;;;0.63;0.63;;;;;;;6.02;94.99;95559.53;5057560;28;20215;-68
2021/12/01 03:06:46;;;;;;;0.40;0.40;;;;;;;6.13;96.06;95563.44;5061889;28;20189;-66
2021/12/01 03:09:15;;;;;;;0.93;0.80;;;;;;;6.09;95.41;95556.91;5062761;28;20189;-66
2021/12/01 03:11:44;;;;;;;0.70;0.70;;;;;;;6.19;95.92;95552.31;5060280;28;20213;-66
2021/12/01 03:14:13;;;;;;;0.63;0.63;;;;;;;6.12;95.41;95548.75;5061308;28;20288;-67
2021/12/01 03:16:41;;;;;;;0.40;0.40;;;;;;;6.12;95.25;95546.13;5060441;28;20268;-67
2021/12/01 03:19:08;;;;;;;0.60;0.60;;;;;;;6.20;94.72;95548.72;5062341;28;20205;-68
2021/12/01 03:21:37;;;;;;;0.40;0.40;;;;;;;6.39;95.03;95524.81;5063819;28;20285;-68
2021/12/01 03:24:05;;;;;;;0.50;0.50;;;;;;;6.42;94.76;95532.31;5063783;28;20211;-67
2021/12/01 03:26:33;;;;;;;0.50;0.50;;;;;;;6.29;95.02;95532.03;5063257;28;20538;-66
2021/12/01 03:29:02;;;;;;;5.27;1.13;;;;;;;6.56;94.33;95515.91;5063762;28;20212;-66
2021/12/01 03:31:36;;;;;;;1.03;0.73;;;;;;;6.52;95.78;95516.41;5061660;28;20208;-67
2021/12/01 03:34:03;;;;;;;2.10;1.27;;;;;;;6.30;95.61;95511.91;5057747;28;20560;-68
2021/12/01 03:36:30;;;;;;;0.40;0.40;;;;;;;6.24;94.97;95513.41;5059768;28;20235;-69
2021/12/01 03:38:56;;;;;;;4.23;1.07;;;;;;;6.35;95.06;95514.84;5037864;28;20209;-69
2021/12/01 03:41:23;;;;;;;0.60;0.60;;;;;;;6.09;95.21;95515.06;5037804;28;20201;-69
2021/12/01 03:43:49;;;;;;;0.43;0.43;;;;;;;6.36;94.52;95512.03;5037463;28;20210;-69
2021/12/01 03:46:19;;;;;;;0.60;0.60;;;;;;;6.61;94.73;95494.47;5037090;28;20248;-69
2021/12/01 03:48:45;;;;;;;1.80;0.83;;;;;;;6.17;94.68;95494.16;5034638;28;20335;-69
2021/12/01 03:51:12;;;;;;;0.50;0.50;;;;;;;6.36;95.42;95495.53;5037569;28;20795;-69
2021/12/01 03:53:38;;;;;;;0.87;0.57;;;;;;;6.39;95.15;95485.56;5037031;28;20205;-69
2021/12/01 03:56:05;;;;;;;0.40;0.40;;;;;;;6.44;95.52;95485.88;5037162;28;20244;-70
2021/12/01 03:58:32;;;;;;;0.33;0.33;;;;;;;6.36;95.12;95485.06;5035984;28;20205;-69
2021/12/01 04:00:58;;;;;;;5.50;0.50;;;;;;;6.29;96.38;95476.28;5037205;28;20205;-69
2021/12/01 04:03:26;;;;;;;0.73;0.60;;;;;;;6.65;95.70;95476.41;5036732;28;20231;-69
2021/12/01 04:05:53;;;;;;;1.53;0.80;;;;;;;6.37;95.93;95474.44;5037690;28;20574;-69
2021/12/01 04:08:19;;;;;;;2.10;0.77;;;;;;;6.27;95.89;95473.81;5037853;28;20208;-70
2021/12/01 04:10:46;;;;;;;0.40;0.40;;;;;;;6.49;95.57;95460.00;5037442;28;20208;-69
2021/12/01 04:13:12;;;;;;;1.50;0.80;;;;;;;6.47;95.15;95456.72;5036668;28;20217;-69
2021/12/01 04:15:39;;;;;;;0.70;0.70;;;;;;;6.63;94.23;95461.88;5037271;28;20217;-69
2021/12/01 04:18:05;;;;;;;0.43;0.40;;;;;;;6.49;94.59;95460.00;5037366;28;20201;-69
2021/12/01 04:20:33;;;;;;;1.03;0.97;;;;;;;6.94;93.82;95454.84;5037330;28;20205;-69
2021/12/01 04:23:00;;;;;;;0.87;0.87;;;;;;;6.58;94.55;95451.13;5036272;28;20448;-69
2021/12/01 04:25:27;;;;;;;0.90;0.80;;;;;;;6.68;94.19;95446.47;5036894;28;20243;-69
2021/12/01 04:27:53;;;;;;;2.50;1.13;;;;;;;6.42;95.14;95438.13;5036808;28;20198;-69
2021/12/01 04:30:22;;;;;;;0.67;0.67;;;;;;;6.54;95.04;95443.78;5037250;28;20681;-69
2021/12/01 04:32:49;;;;;;;0.40;0.40;;;;;;;6.69;94.31;95440.25;5035761;28;20198;-69
2021/12/01 04:35:18;;;;;;;0.97;0.70;;;;;;;6.81;93.34;95441.47;5036982;28;20236;-69
2021/12/01 04:37:46;;;;;;;0.50;0.50;;;;;;;7.14;93.91;95429.78;5038214;28;20200;-69
2021/12/01 04:40:14;;;;;;;0.50;0.50;;;;;;;6.91;94.70;95428.97;5036824;28;21085;-69
2021/12/01 04:42:40;;;;;;;0.50;0.50;;;;;;;6.53;95.36;95429.88;5035569;28;20220;-69
2021/12/01 04:45:14;;;;;;;0.47;0.47;;;;;;;6.67;95.39;95421.31;5036825;28;20231;-69
2021/12/01 04:47:41;;;;;;;2.87;0.47;;;;;;;6.58;95.05;95422.34;5037215;28;20204;-69
2021/12/01 04:50:09;;;;;;;0.40;0.40;;;;;;;6.89;94.15;95410.03;5036974;28;20201;-70
2021/12/01 04:52:35;;;;;;;0.23;0.23;;;;;;;6.69;94.38;95419.31;5036166;28;20657;-69
2021/12/01 04:55:03;;;;;;;0.53;0.53;;;;;;;6.96;94.57;95405.72;5036550;28;20232;-69
2021/12/01 04:57:30;;;;;;;1.27;0.77;;;;;;;6.76;94.61;95401.94;5033595;28;20197;-69
2021/12/01 04:59:57;;;;;;;0.37;0.37;;;;;;;6.62;95.70;95392.22;5036336;28;20707;-69
2021/12/01 05:02:23;;;;;;;3.60;0.60;;;;;;;6.51;95.80;95397.84;5036222;28;20221;-69
2021/12/01 05:04:50;;;;;;;1.17;0.60;;;;;;;6.41;96.60;95399.84;5036402;28;20225;-69
2021/12/01 05:07:17;;;;;;;1.63;0.83;;;;;;;6.40;96.45;95397.41;5036548;28;20197;-69
2021/12/01 05:09:43;;;;;;;0.80;0.60;;;;;;;6.39;97.49;95388.75;5036769;28;20205;-69
2021/12/01 05:12:11;;;;;;;0.63;0.50;;;;;;;6.80;96.33;95390.94;5036046;28;20213;-69
2021/12/01 05:14:39;;;;;;;0.57;0.50;;;;;;;6.45;97.03;95395.09;5036249;28;20228;-69
2021/12/01 05:17:07;;;;;;;3.30;2.20;;;;;;;6.86;95.78;95381.56;5036791;28;20201;-69
2021/12/01 05:19:34;;;;;;;3.03;1.53;;;;;;;6.89;95.67;95382.03;5036019;28;20210;-69
2021/12/01 05:22:02;;;;;;;3.90;1.57;;;;;;;6.62;96.12;95371.28;5035843;28;20220;-70
2021/12/01 05:24:29;;;;;;;3.73;2.23;;;;;;;6.82;95.83;95368.03;5035530;28;20231;-70
2021/12/01 05:26:56;;;;;;;7.40;1.77;;;;;;;6.50;97.13;95350.91;5036798;28;20212;-69
2021/12/01 05:29:24;;;;;;;2.53;1.20;;;;;;;6.81;96.18;95355.06;5034599;28;20197;-69
2021/12/01 05:31:50;;;;;;;7.03;3.83;;;;;;;6.63;96.01;95331.00;5036511;28;20212;-69
2021/12/01 05:34:17;;;;;;;3.97;1.37;;;;;;;6.47;96.33;95336.38;5036009;28;20705;-69
2021/12/01 05:36:44;;;;;;;4.40;2.20;;;;;;;6.59;96.37;95334.97;5036037;28;20201;-69
2021/12/01 05:39:10;;;;;;;5.00;1.53;;;;;;;6.60;96.17;95320.88;5036065;28;20212;-69
2021/12/01 05:41:37;;;;;;;1.30;1.03;;;;;;;6.35;97.38;95316.84;5037002;28;20687;-69
2021/12/01 05:44:04;;;;;;;3.37;1.17;;;;;;;6.39;96.56;95312.88;5034696;28;20236;-69
2021/12/01 05:46:32;;;;;;;1.27;0.90;;;;;;;6.69;96.65;95317.22;5035726;28;20205;-69
2021/12/01 05:48:58;;;;;;;0.70;0.70;;;;;;;6.37;96.92;95311.41;5036623;28;20214;-69
2021/12/01 05:51:25;;;;;;;1.43;0.90;;;;;;;6.34;96.92;95315.19;5036004;28;20205;-69
2021/12/01 05:53:51;;;;;;;0.60;0.60;;;;;;;6.44;96.69;95305.31;5035001;28;20193;-69
2021/12/01 05:56:18;;;;;;;1.40;1.03;;;;;;;6.59;96.14;95308.78;5036188;28;20680;-69
2021/12/01 05:58:44;;;;;;;1.30;1.20;;;;;;;6.54;95.74;95300.66;5033657;28;20212;-69
2021/12/01 06:01:11;;;;;;;3.70;1.20;;;;;;;6.67;95.62;95303.50;5035788;28;20206;-69
2021/12/01 06:03:40;;;;;;;1.63;1.53;;;;;;;6.83;95.95;95306.78;5035590;28;20674;-69
2021/12/01 06:06:06;;;;;;;0.90;0.90;;;;;;;6.34;96.59;95296.06;5036238;28;20253;-69
2021/12/01 06:08:33;;;;;;;1.07;0.97;;;;;;;6.61;95.31;95306.03;5037669;28;20216;-69
2021/12/01 06:10:59;;;;;;;6.97;1.97;;;;;;;6.72;95.18;95290.69;5039636;28;20217;-69
2021/12/01 06:13:26;;;;;;;1.37;1.03;;;;;;;6.61;95.24;95291.13;5039119;28;21091;-69
2021/12/01 06:15:52;;;;;;;2.87;1.73;;;;;;;6.59;95.79;95285.22;5039713;28;20232;-69
2021/12/01 06:18:20;;;;;;;1.33;1.23;;;;;;;6.57;96.61;95278.53;5039835;28;20193;-69
2021/12/01 06:20:47;;;;;;;1.23;1.10;;;;;;;6.62;97.26;95271.81;5039272;28;20202;-69
2021/12/01 06:23:15;;;;;;;0.90;0.90;;;;;;;6.41;96.29;95274.25;5039034;28;20217;-69
2021/12/01 06:25:41;;;;;;;0.47;0.47;;;;;;;6.50;95.75;95267.16;5039763;28;20227;-69
2021/12/01 06:28:08;;;;;;;1.33;1.03;;;;;;;6.46;95.55;95256.22;5039185;28;20567;-69
2021/12/01 06:30:37;;;;;;;0.90;0.77;;;;;;;6.82;95.53;95260.66;5039217;28;20205;-70
2021/12/01 06:33:03;;;;;;;1.73;1.10;;;;;;;6.62;94.48;95248.25;5038685;28;20585;-70
2021/12/01 06:35:30;;;;;;;0.53;0.50;;;;;;;6.40;95.73;95254.34;5039495;28;20217;-70
2021/12/01 06:37:58;;;;;;;3.57;0.93;;;;;;;6.70;94.71;95237.72;5038928;28;20578;-70
2021/12/01 06:40:26;;;;;;;0.80;0.73;;;;;;;6.70;94.34;95228.03;5039397;28;20202;-70
2021/12/01 06:42:53;;;;;;;0.77;0.67;;;;;;;6.54;94.59;95230.00;5038590;28;20236;-70
2021/12/01 06:45:20;;;;;;;0.40;0.40;;;;;;;6.49;94.21;95223.66;5039241;28;20355;-70
2021/12/01 06:47:47;;;;;;;1.13;1.03;;;;;;;6.56;94.48;95227.22;5038937;28;20687;-70
2021/12/01 06:50:15;;;;;;;1.60;1.03;;;;;;;6.70;93.88;95232.47;5039466;28;20690;-70
2021/12/01 06:52:42;;;;;;;0.50;0.50;;;;;;;6.43;93.77;95225.19;5038195;28;20205;-70
2021/12/01 06:55:11;;;;;;;0.40;0.40;;;;;;;6.71;93.84;95221.03;5039307;28;20225;-70
2021/12/01 06:57:37;;;;;;;0.90;0.90;;;;;;;6.56;93.17;95219.38;5036661;28;20214;-70
2021/12/01 07:00:07;;;;;;;0.80;0.80;;;;;;;6.73;93.84;95211.16;5038369;28;20205;-70
2021/12/01 07:02:34;;;;;;;1.23;1.00;;;;;;;6.68;92.27;95216.13;5038173;28;20216;-70
2021/12/01 07:05:00;;;;;;;1.20;1.10;;;;;;;6.53;93.45;95211.84;5038679;28;20240;-70
2021/12/01 07:07:27;;;;;;;0.90;0.80;;;;;;;6.57;92.70;95205.28;5038965;28;20208;-70
2021/12/01 07:09:54;;;;;;;1.30;1.07;;;;;;;6.54;92.73;95201.19;5038715;28;20197;-70
2021/12/01 07:12:22;;;;;;;1.33;1.10;;;;;;;6.83;92.16;95201.25;5037905;28;20201;-70
2021/12/01 07:14:49;;;;;;;0.53;0.53;;;;;;;6.42;92.99;95197.41;5039430;28;20225;-70
2021/12/01 07:17:16;;;;;;;1.77;1.30;;;;;;;6.53;92.88;95188.31;5038532;28;20205;-70
2021/12/01 07:19:43;;;;;;;0.67;0.67;;;;;;;6.52;92.24;95182.25;5038740;28;20363;-70
2021/12/01 07:22:10;;;;;;;0.83;0.60;;;;;;;6.55;92.21;95175.88;5038498;28;20209;-70
2021/12/01 07:24:36;;;;;;;0.60;0.60;;;;;;;6.54;92.02;95176.84;5038345;28;20247;-70
2021/12/01 07:27:03;;;;;;;0.87;0.70;;;;;;;6.41;92.63;95174.03;5038640;28;20244;-70
2021/12/01 07:29:31;;;;;;;0.40;0.40;;;;;;;6.74;92.16;95166.47;5038077;28;20205;-70
2021/12/01 07:31:57;;;;;;;0.60;0.60;;;;;;;6.11;93.28;95175.75;5038128;28;20254;-70
2021/12/01 07:34:24;;;;;;;0.70;0.60;;;;;;;6.25;93.00;95180.22;5038573;28;20698;-70
2021/12/01 07:36:50;;;;;;;0.70;0.70;;;;;;;6.44;92.17;95177.13;5038558;28;20212;-70
2021/12/01 07:39:19;;;;;;;0.60;0.60;;;;;;;6.52;92.17;95176.19;5037682;28;20208;-70
2021/12/01 07:41:45;;;;;;;0.80;0.60;;;;;;;6.47;91.66;95171.50;5038335;28;20232;-70
2021/12/01 07:44:12;;;;;;;1.13;0.70;;;;;;;6.63;92.15;95173.16;5037455;28;20221;-70
2021/12/01 07:46:40;;;;;;;0.30;0.30;;;;;;;6.76;91.49;95161.91;5037015;28;20204;-70
2021/12/01 07:49:07;;;;;;;0.67;0.60;;;;;;;6.58;91.52;95171.09;5035644;28;20212;-70
2021/12/01 07:51:33;;;;;;;0.73;0.70;;;;;;;6.57;90.68;95169.47;5037529;28;20220;-70
2021/12/01 07:54:00;;;;;;;0.47;0.43;;;;;;;6.72;89.87;95162.41;5036204;28;20197;-70
2021/12/01 07:56:26;;;;;;;0.60;0.60;;;;;;;6.61;90.16;95165.50;5037523;28;20216;-70
2021/12/01 07:58:53;;;;;;;9.83;1.13;;;;;;;6.59;90.21;95162.22;5036880;28;20967;-70
2021/12/01 08:01:19;;;;;;;2.20;1.83;;;;;;;6.79;89.68;95147.63;5038044;28;20208;-69
2021/12/01 08:03:47;;;;;;;1.20;0.87;;;;;;;6.91;90.07;95154.03;5037068;28;20221;-70
2021/12/01 08:06:14;;;;;;;4.93;1.60;;;;;;;6.89;89.33;95148.97;5037745;28;20993;-70
2021/12/01 08:08:40;;;;;;;0.57;0.57;;;;;;;6.90;88.57;95155.06;5037329;28;20743;-70
2021/12/01 08:11:06;;;;;;;0.40;0.40;;;;;;;6.84;88.71;95151.31;5042000;28;20212;-69
2021/12/01 08:13:33;;;;;;;0.70;0.70;;;;;;;7.01;87.76;95144.91;5053567;28;20201;-70
2021/12/01 08:16:00;;;;;;;0.50;0.50;;;;;;;6.84;88.80;95140.06;5051333;28;20300;-71
2021/12/01 08:18:27;;;;;;;0.73;0.73;;;;;;;6.93;87.73;95139.75;5044546;28;20202;-67
2021/12/01 08:20:55;;;;;;;0.83;0.63;;;;;;;7.28;88.21;95129.34;5048117;28;20201;-70
2021/12/01 08:23:21;;;;;;;0.27;0.27;;;;;;;6.99;88.05;95117.31;5049125;28;20225;-67
2021/12/01 08:25:48;;;;;;;2.10;0.83;;;;;;;6.99;88.06;95112.88;5051726;28;20235;-67
2021/12/01 08:28:15;;;;;;;0.40;0.40;;;;;;;7.03;87.48;95100.22;5055248;28;20573;-67
2021/12/01 08:30:41;;;;;;;0.50;0.50;;;;;;;7.08;87.64;95097.88;5050444;28;20288;-68
2021/12/01 08:33:09;;;;;;;1.13;0.73;;;;;;;7.26;86.77;95099.88;5055417;28;20899;-66
2021/12/01 08:35:36;;;;;;;0.30;0.30;;;;;;;7.18;87.50;95090.50;5053624;28;20217;-66
2021/12/01 08:38:03;;;;;;;2.13;0.80;;;;;;;7.60;85.93;95094.84;5056282;28;20641;-67
2021/12/01 08:40:30;;;;;;;1.53;0.50;;;;;;;7.12;86.54;95088.66;5049827;28;20264;-72
2021/12/01 08:42:57;;;;;;;2.50;0.93;;;;;;;7.39;85.87;95099.22;5055251;28;20197;-67
2021/12/01 08:45:23;;;;;;;1.73;1.03;;;;;;;7.27;86.69;95085.81;5053968;28;20223;-67
2021/12/01 08:47:50;;;;;;;4.80;1.17;;;;;;;7.65;85.11;95079.34;5055123;28;20288;-67
2021/12/01 08:50:17;;;;;;;0.53;0.53;;;;;;;7.71;85.46;95083.03;5053708;28;20189;-66
2021/12/01 08:52:45;;;;;;;0.97;0.60;;;;;;;7.67;85.41;95072.09;5051494;28;20207;-68
2021/12/01 08:55:13;;;;;;;0.30;0.30;;;;;;;7.83;84.93;95071.03;5049814;28;20275;-71
2021/12/01 08:57:40;;;;;;;0.43;0.43;;;;;;;7.63;85.26;95070.84;5046744;28;20193;-71
2021/12/01 09:00:08;;;;;;;1.43;0.87;;;;;;;8.06;85.07;95056.72;5042963;28;20201;-71
2021/12/01 09:02:35;;;;;;;1.40;0.70;;;;;;;7.77;84.96;95069.97;5040533;28;20201;-71
2021/12/01 09:05:01;;;;;;;0.43;0.43;;;;;;;7.91;84.70;95061.22;5048768;28;20228;-68
2021/12/01 09:07:28;;;;;;;0.77;0.70;;;;;;;7.92;83.66;95047.13;5043564;28;20772;-68
2021/12/01 09:09:54;;;;;;;0.60;0.60;;;;;;;8.00;84.25;95041.72;5041056;28;20201;-67
2021/12/01 09:12:23;;;;;;;0.40;0.40;;;;;;;8.23;84.05;95037.09;5041680;28;21268;-70
2021/12/01 09:14:51;;;;;;;1.03;0.93;;;;;;;8.21;83.49;95036.47;5044400;28;20312;-70
2021/12/01 09:17:18;;;;;;;0.73;0.60;;;;;;;8.18;82.98;95040.28;5054708;28;20228;-70
2021/12/01 09:19:45;;;;;;;1.30;0.77;;;;;;;8.24;82.13;95038.72;5053503;28;20247;-67
2021/12/01 09:22:12;;;;;;;1.07;1.00;;;;;;;8.58;82.49;95032.47;5046775;28;20212;-71
2021/12/01 09:24:40;;;;;;;0.87;0.67;;;;;;;8.72;81.41;95038.63;5049803;28;20224;-67
2021/12/01 09:27:07;;;;;;;1.77;1.20;;;;;;;8.90;79.91;95036.28;5054062;28;20653;-68
2021/12/01 09:29:35;;;;;;;1.23;0.80;;;;;;;8.97;80.58;95021.34;5054516;28;20197;-67
2021/12/01 09:32:02;;;;;;;0.30;0.30;;;;;;;8.81;79.88;95017.25;5054657;28;20217;-68
2021/12/01 09:34:29;;;;;;;0.60;0.60;;;;;;;8.91;80.03;95020.31;5047018;28;20259;-70
2021/12/01 09:36:56;;;;;;;0.40;0.40;;;;;;;8.89;80.03;95014.44;5045626;28;20209;-67
2021/12/01 09:39:26;;;;;;;0.37;0.37;;;;;;;8.89;81.12;95003.13;5057004;28;20261;-67
2021/12/01 09:42:15;;;;;;;0.87;0.60;;;;;;;8.79;81.20;94997.44;5061550;28;20193;-67
2021/12/01 09:44:53;;;;;;;0.50;0.50;;;;;;;8.79;80.33;94986.91;5061448;28;20289;-67
2021/12/01 09:47:21;;;;;;;0.40;0.40;;;;;;;8.70;80.90;94988.88;5062915;28;20285;-68
2021/12/01 09:49:48;;;;;;;1.03;0.80;;;;;;;8.66;81.40;94992.91;5051424;28;20204;-70
2021/12/01 09:52:14;;;;;;;0.50;0.40;;;;;;;8.74;79.97;95000.63;5055953;28;20228;-67
2021/12/01 09:54:43;;;;;;;2.43;0.70;;;;;;;8.65;81.24;94993.13;5056845;28;20642;-67
2021/12/01 09:57:13;;;;;;;0.57;0.50;;;;;;;8.71;80.42;94990.53;5053212;28;20190;-69
2021/12/01 09:59:40;;;;;;;0.90;0.80;;;;;;;8.99;81.02;94977.31;5053842;28;20205;-70
2021/12/01 10:02:10;;;;;;;1.40;1.07;;;;;;;9.22;80.24;94968.06;5057490;28;20197;-70
2021/12/01 10:04:36;;;;;;;0.80;0.80;;;;;;;9.46;78.09;94968.28;5059534;28;20268;-69
2021/12/01 10:07:13;;;;;;;0.57;0.57;;;;;;;9.63;77.57;94958.19;5045441;28;20201;-69
2021/12/01 10:09:56;;;;;;;1.00;0.63;;;;;;;9.14;78.79;94970.88;5046430;28;20201;-68
2021/12/01 10:12:24;;;;;;;1.07;0.57;;;;;;;8.77;79.72;94947.72;5058534;28;20300;-71
2021/12/01 10:14:52;;;;;;;0.67;0.50;;;;;;;8.91;78.48;94943.31;5052246;28;20227;-73
2021/12/01 10:17:34;;;;;;;0.63;0.63;;;;;;;9.68;77.38;94931.06;5039878;28;20205;-68
2021/12/01 10:20:12;;;;;;;0.70;0.47;;;;;;;9.78;78.61;94920.94;5039821;28;20209;-71
2021/12/01 10:22:38;;;;;;;0.77;0.60;;;;;;;9.46;78.55;94912.28;5038365;28;20209;-71
2021/12/01 10:25:25;;;;;;;0.40;0.40;;;;;;;9.94;77.67;94910.03;5038319;28;20617;-71
2021/12/01 10:27:52;;;;;;;0.73;0.73;;;;;;;9.74;77.83;94896.06;5039407;28;20205;-72
2021/12/01 10:30:40;;;;;;;0.40;0.40;;;;;;;10.42;75.49;94896.38;5039849;28;20584;-72
2021/12/01 10:33:11;;;;;;;0.73;0.73;;;;;;;10.07;76.69;94902.13;5039134;28;20205;-70
2021/12/01 10:35:38;;;;;;;1.03;0.67;;;;;;;9.96;76.53;94894.84;5042814;28;20240;-72
2021/12/01 10:38:06;;;;;;;0.47;0.47;;;;;;;9.87;77.47;94893.41;5041227;28;20216;-71
2021/12/01 10:40:34;;;;;;;2.07;1.00;;;;;;;9.90;76.24;94890.41;5041371;28;20284;-73
2021/12/01 10:43:03;;;;;;;0.57;0.53;;;;;;;9.71;76.71;94875.44;5041751;28;20216;-71
2021/12/01 10:45:31;;;;;;;0.50;0.50;;;;;;;9.68;77.64;94874.25;5040225;28;20240;-72
2021/12/01 10:48:00;;;;;;;0.40;0.40;;;;;;;9.56;77.63;94865.34;5044515;28;20212;-68
2021/12/01 10:50:31;;;;;;;0.37;0.37;;;;;;;9.55;77.44;94854.03;5046432;28;20216;-71
2021/12/01 10:53:04;;;;;;;1.20;0.87;;;;;;;9.98;77.61;94837.59;5041080;28;20205;-72
2021/12/01 10:55:32;;;;;;;1.00;0.80;;;;;;;9.83;77.82;94836.97;5048493;28;20209;-69
2021/12/01 10:58:02;;;;;;;0.70;0.70;;;;;;;9.55;77.83;94824.31;5042387;28;20208;-73
2021/12/01 11:00:31;;;;;;;1.00;0.80;;;;;;;9.66;77.72;94828.91;5039490;28;20212;-72
2021/12/01 11:03:08;;;;;;;0.63;0.60;;;;;;;9.81;77.91;94811.88;5037415;28;20917;-70
2021/12/01 11:05:38;;;;;;;1.10;0.90;;;;;;;10.01;78.06;94810.06;5038306;28;20235;-69
2021/12/01 11:08:15;;;;;;;0.37;0.37;;;;;;;9.78;77.72;94804.41;5039916;28;20217;-68
2021/12/01 11:10:43;;;;;;;0.73;0.50;;;;;;;9.73;78.10;94786.63;5038721;28;20211;-72
2021/12/01 11:13:11;;;;;;;0.50;0.50;;;;;;;9.53;78.04;94779.78;5037947;28;20818;-71
2021/12/01 11:15:40;;;;;;;1.87;0.93;;;;;;;10.18;76.77;94767.25;5038811;28;20217;-73
2021/12/01 11:18:09;;;;;;;0.80;0.80;;;;;;;9.87;77.22;94775.03;5038558;28;20208;-72
2021/12/01 11:20:41;;;;;;;1.33;0.80;;;;;;;10.20;76.57;94754.69;5038093;28;20614;-72
2021/12/01 11:23:13;;;;;;;1.40;0.90;;;;;;;10.38;76.48;94757.44;5038223;28;20213;-72
2021/12/01 11:25:40;;;;;;;1.27;1.17;;;;;;;10.37;75.61;94747.91;5038738;28;20221;-73
2021/12/01 11:28:09;;;;;;;0.63;0.60;;;;;;;10.09;76.60;94752.72;5038381;28;20212;-70
2021/12/01 11:30:37;;;;;;;1.40;1.00;;;;;;;10.63;75.54;94731.97;5038163;28;20201;-73
2021/12/01 11:33:04;;;;;;;0.63;0.63;;;;;;;10.82;74.66;94729.19;5036184;28;20205;-70
2021/12/01 11:35:31;;;;;;;0.83;0.77;;;;;;;10.73;74.90;94724.38;5038121;28;20217;-68
2021/12/01 11:37:59;;;;;;;0.73;0.73;;;;;;;10.85;74.62;94720.84;5037979;28;20197;-73
2021/12/01 11:40:28;;;;;;;3.20;0.60;;;;;;;10.58;76.30;94721.25;5038292;28;21062;-72
2021/12/01 11:42:55;;;;;;;0.87;0.73;;;;;;;10.42;76.59;94719.13;5037456;28;20197;-73
2021/12/01 11:45:21;;;;;;;0.73;0.67;;;;;;;10.40;76.53;94723.81;5037670;28;20229;-70
2021/12/01 11:47:49;;;;;;;0.40;0.40;;;;;;;10.49;77.02;94701.47;5037611;28;20201;-71
2021/12/01 11:50:21;;;;;;;1.10;1.00;;;;;;;10.78;76.80;94703.47;5037581;28;20208;-71
2021/12/01 11:53:03;;;;;;;0.53;0.53;;;;;;;10.46;77.11;94686.06;5036750;28;20205;-71
2021/12/01 11:55:52;;;;;;;0.43;0.40;;;;;;;10.65;75.83;94688.56;5037364;28;20221;-71
2021/12/01 11:58:43;;;;;;;0.40;0.40;;;;;;;10.81;76.01;94674.88;5034385;28;20203;-71
2021/12/01 12:01:35;;;;;;;0.47;0.47;;;;;;;10.72;76.39;94672.72;5035757;28;20205;-71
2021/12/01 12:04:20;;;;;;;0.50;0.50;;;;;;;10.76;76.13;94666.00;5035350;28;20205;-71
2021/12/01 12:06:48;;;;;;;0.20;0.20;;;;;;;10.44;77.33;94653.91;5036555;28;20201;-71